createdAt,value
2022-11-27T11:00:11.154Z,100.00
2022-11-27T11:02:42.433Z,100.00
2022-11-27T11:05:34.647Z,100.00
2022-11-27T11:08:26.249Z,100.00
2022-11-27T11:10:57.579Z,100.00
2022-11-27T11:13:28.991Z,100.00
2022-11-27T11:16:01.524Z,100.00
2022-11-27T11:18:31.399Z,100.00
2022-11-27T11:21:01.544Z,100.00
2022-11-27T11:23:37.125Z,100.00
2022-11-27T11:26:44.496Z,100.00
2022-11-27T11:29:35.787Z,100.00
2022-11-27T11:32:10.338Z,100.00
2022-11-27T11:34:43.787Z,100.00
2022-11-27T11:37:34.012Z,100.00
2022-11-27T11:40:08.984Z,100.00
2022-11-27T11:42:50.928Z,100.00
2022-11-27T11:45:19.551Z,100.00
2022-11-27T11:47:53.054Z,100.00
2022-11-27T11:50:37.153Z,100.00
2022-11-27T11:53:24.706Z,100.00
2022-11-27T11:56:30.560Z,100.00
2022-11-27T11:59:00.504Z,97.67
2022-11-27T12:01:39.130Z,99.59
2022-11-27T12:04:14.498Z,100.00
2022-11-27T12:06:51.403Z,100.00
2022-11-27T12:09:59.539Z,98.11
2022-11-27T12:12:44.225Z,96.53
2022-11-27T12:15:36.371Z,95.52
2022-11-27T12:18:44.421Z,94.73
2022-11-27T12:21:15.456Z,95.91
2022-11-27T12:23:58.865Z,89.58
2022-11-27T12:26:50.131Z,91.30
2022-11-27T12:29:55.659Z,89.83
2022-11-27T12:32:40.763Z,92.92
2022-11-27T12:35:16.425Z,86.61
2022-11-27T12:37:49.038Z,89.90
2022-11-27T12:40:46.608Z,88.99
2022-11-27T12:43:27.239Z,89.97
2022-11-27T12:46:04.340Z,90.67
2022-11-27T12:48:58.898Z,90.81
2022-11-27T12:51:35.164Z,89.53
2022-11-27T12:54:09.963Z,90.06
2022-11-27T12:56:43.738Z,88.98
2022-11-27T12:59:14.868Z,89.73
2022-11-27T13:01:46.019Z,89.89
2022-11-27T13:04:25.278Z,89.00
2022-11-27T13:07:12.341Z,87.23
2022-11-27T13:10:05.854Z,88.29
2022-11-27T13:12:46.967Z,89.54
2022-11-27T13:15:42.964Z,85.81
2022-11-27T13:18:31.558Z,88.08
2022-11-27T13:21:02.493Z,88.28
2022-11-27T13:23:33.124Z,87.67
2022-11-27T13:26:04.018Z,86.27
2022-11-27T13:28:30.627Z,86.94
2022-11-27T13:31:00.153Z,85.81
2022-11-27T13:33:44.317Z,86.15
2022-11-27T13:36:33.374Z,85.28
2022-11-27T13:39:02.921Z,84.98
2022-11-27T13:41:41.637Z,85.31
2022-11-27T13:44:24.794Z,84.64
2022-11-27T13:46:54.964Z,84.77
2022-11-27T13:49:27.551Z,84.24
2022-11-27T13:52:09.603Z,84.76
2022-11-27T13:54:36.524Z,84.80
2022-11-27T13:57:15.392Z,83.02
2022-11-27T13:59:54.374Z,85.51
2022-11-27T14:02:21.032Z,85.12
2022-11-27T14:04:56.188Z,83.14
2022-11-27T14:07:34.488Z,84.56
2022-11-27T14:10:09.821Z,84.94
2022-11-27T14:12:36.799Z,84.82
2022-11-27T14:15:21.582Z,86.30
2022-11-27T14:17:50.714Z,85.40
2022-11-27T14:20:17.418Z,86.46
2022-11-27T14:23:17.524Z,84.37
2022-11-27T14:25:44.208Z,86.11
2022-11-27T14:28:21.913Z,85.87
2022-11-27T14:30:51.736Z,85.83
2022-11-27T14:33:26.838Z,85.91
2022-11-27T14:35:56.294Z,86.87
2022-11-27T14:38:23.519Z,87.33
2022-11-27T14:40:53.927Z,86.82
2022-11-27T14:43:26.002Z,87.19
2022-11-27T14:45:56.379Z,87.29
2022-11-27T14:48:59.093Z,86.66
2022-11-27T14:51:28.255Z,85.41
2022-11-27T14:54:00.161Z,85.53
2022-11-27T14:56:36.076Z,85.79
2022-11-27T14:59:03.933Z,87.12
2022-11-27T15:01:35.727Z,84.90
2022-11-27T15:04:23.631Z,84.64
2022-11-27T15:06:50.712Z,85.79
2022-11-27T15:09:31.755Z,85.81
2022-11-27T15:12:23.783Z,86.27
2022-11-27T15:15:18.373Z,87.15
2022-11-27T15:17:48.809Z,88.03
2022-11-27T15:20:27.537Z,88.35
2022-11-27T15:22:56.459Z,88.44
2022-11-27T15:25:51.543Z,89.04
2022-11-27T15:28:59.735Z,89.36
2022-11-27T15:31:29.422Z,89.70
2022-11-27T15:33:57.309Z,89.50
2022-11-27T15:36:24.562Z,89.13
2022-11-27T15:38:51.694Z,89.52
2022-11-27T15:41:40.845Z,89.46
2022-11-27T15:44:10.107Z,89.94
2022-11-27T15:46:36.892Z,90.46
2022-11-27T15:49:03.537Z,90.93
2022-11-27T15:51:30.843Z,91.40
2022-11-27T15:53:57.485Z,91.52
2022-11-27T15:56:24.175Z,91.45
2022-11-27T15:58:50.776Z,91.90
2022-11-27T16:01:17.493Z,92.23
2022-11-27T16:03:44.140Z,91.70
2022-11-27T16:06:10.795Z,91.79
2022-11-27T16:08:37.451Z,91.98
2022-11-27T16:11:07.679Z,92.39
2022-11-27T16:13:34.741Z,91.67
2022-11-27T16:16:05.596Z,91.98
2022-11-27T16:18:33.082Z,92.37
2022-11-27T16:21:08.446Z,92.36
2022-11-27T16:23:35.936Z,92.05
2022-11-27T16:26:02.773Z,92.54
2022-11-27T16:28:30.538Z,92.61
2022-11-27T16:30:59.545Z,92.54
2022-11-27T16:33:30.225Z,91.83
2022-11-27T16:36:03.748Z,92.69
2022-11-27T16:38:30.396Z,92.53
2022-11-27T16:41:01.404Z,92.01
2022-11-27T16:43:31.240Z,92.11
2022-11-27T16:46:07.495Z,92.34
2022-11-27T16:48:35.979Z,92.49
2022-11-27T16:51:04.713Z,92.50
2022-11-27T16:53:31.424Z,90.36
2022-11-27T16:55:58.038Z,91.04
2022-11-27T16:58:24.739Z,90.27
2022-11-27T17:00:51.398Z,91.22
2022-11-27T17:03:18.009Z,91.86
2022-11-27T17:05:50.144Z,91.15
2022-11-27T17:08:17.966Z,91.31
2022-11-27T17:10:45.426Z,90.45
2022-11-27T17:13:12.036Z,90.11
2022-11-27T17:15:40.738Z,91.62
2022-11-27T17:18:07.619Z,90.51
2022-11-27T17:20:34.228Z,91.48
2022-11-27T17:23:00.952Z,91.79
2022-11-27T17:25:30.469Z,91.24
2022-11-27T17:27:56.977Z,91.72
